ASN logo
Accident description
Last updated: 13 December 2017
Status:Preliminary - official
Date:Wednesday 29 March 2006
Time:20:51
Type:Silhouette image of generic IL62 model; specific model in this crash may look slightly different
Ilyushin 62M
Operator:Community of Sahel-Saharan States CEN-SAD
Registration: 5A-DKR
C/n / msn: 4053514
First flight: 1990
Engines: 4 Soloviev D-30KU
Crew:Fatalities: 0 / Occupants: 6
Passengers:Fatalities: 0 / Occupants: 0
Total:Fatalities: 0 / Occupants: 6
Airplane damage: Damaged beyond repair
Location:Moskva-Domodedovo Airport (DME) (   Russia)
Phase: Landing (LDG)
Nature:Ferry/positioning
Departure airport:Tripoli-Mitiga International Airport (MJI/HLLM), Libya
Destination airport:Moskva-Domodedovo Airport (DME/UUDD), Russia
Narrative:
The Ilyushin had a landing mishap and came to rest 400 m from the runway. The aircraft broke in three.

Classification:

Sources:
» MAK Interstate Aviation Committee (IAC)
» Russian Ministry of Transport

METAR Weather report:
16:30 UTC / 20:30 local time:
UUDD 291630Z 17002MPS 2400 -RA BR BKN004 OVC100 03/02 Q1002 TEMPO 0500 FG =

17:00 UTC / 21:00 local time:
UUDD 291700Z 19002MPS 160V230 1800 -RA BR BKN004 OVC10003/02 Q1002 EMPO 0500 FG =


Photos

photo of Ilyushin Il-62M 5A-DKR
Add your photo of this accident or aircraft
 

Map
This map shows the airport of departure and the intended destination of the flight. The line between the airports does not display the exact flight path.
Distance from Tripoli-Mitiga International Airport to Moskva-Domodedovo Airport as the crow flies is 3127 km (1955 miles).
Accident location: Exact; deduced from official accident report.

This information is not presented as the Flight Safety Foundation or the Aviation Safety Network’s opinion as to the cause of the accident. It is preliminary and is based on the facts as they are known at this time.
languages: languages

Share